createdAt,value
2022-09-21T00:01:45.514Z,0.90
2022-09-21T00:03:48.503Z,0.95
2022-09-21T00:05:50.589Z,1.13
2022-09-21T00:07:52.905Z,1.05
2022-09-21T00:09:54.995Z,1.00
2022-09-21T00:11:58.343Z,0.90
2022-09-21T00:14:07.690Z,1.00
2022-09-21T00:16:10.074Z,0.88
2022-09-21T00:18:12.702Z,0.90
2022-09-21T00:20:16.204Z,1.00
2022-09-21T00:22:18.731Z,1.00
2022-09-21T00:24:20.902Z,0.70
2022-09-21T00:26:27.049Z,1.00
2022-09-21T00:28:30.361Z,1.00
2022-09-21T00:30:32.529Z,0.75
2022-09-21T00:32:37.110Z,1.00
2022-09-21T00:34:39.124Z,1.63
2022-09-21T00:36:41.467Z,0.80
2022-09-21T00:38:47.449Z,1.08
2022-09-21T00:40:49.753Z,0.75
2022-09-21T00:42:51.973Z,0.60
2022-09-21T00:44:54.788Z,0.80
2022-09-21T00:47:03.402Z,0.82
2022-09-21T00:49:06.123Z,1.02
2022-09-21T00:51:09.389Z,0.88
2022-09-21T00:53:11.864Z,0.73
2022-09-21T00:55:31.300Z,0.68
2022-09-21T00:57:35.693Z,0.70
2022-09-21T00:59:39.974Z,0.93
2022-09-21T01:01:43.014Z,0.70
2022-09-21T01:03:47.507Z,0.50
2022-09-21T01:05:49.538Z,0.80
2022-09-21T01:07:51.929Z,1.05
2022-09-21T01:10:02.743Z,0.80
2022-09-21T01:12:34.714Z,0.60
2022-09-21T01:15:07.729Z,0.70
2022-09-21T01:17:18.912Z,0.55
2022-09-21T01:19:48.819Z,0.75
2022-09-21T01:22:20.373Z,0.75
2022-09-21T01:24:57.714Z,1.00
2022-09-21T01:27:17.182Z,0.50
2022-09-21T01:29:33.937Z,1.50
2022-09-21T01:31:45.709Z,3.10
2022-09-21T01:33:53.384Z,2.40
2022-09-21T01:36:06.636Z,2.60
2022-09-21T01:38:18.838Z,3.10
2022-09-21T01:40:28.445Z,3.20
2022-09-21T01:42:34.777Z,3.75
2022-09-21T01:44:40.080Z,3.88
2022-09-21T01:46:42.760Z,4.32
2022-09-21T01:48:50.444Z,4.80
2022-09-21T01:50:56.161Z,3.22
2022-09-21T01:53:23.999Z,2.42
2022-09-21T01:55:40.494Z,2.10
2022-09-21T01:57:49.062Z,1.20
2022-09-21T01:59:54.533Z,1.40
2022-09-21T02:02:01.001Z,0.95
2022-09-21T02:04:09.882Z,0.90
2022-09-21T02:06:14.358Z,1.20
2022-09-21T02:08:16.768Z,0.80
2022-09-21T02:10:32.965Z,0.63
2022-09-21T02:12:35.023Z,0.90
2022-09-21T02:14:39.127Z,0.60
2022-09-21T02:17:24.954Z,0.80
2022-09-21T02:19:51.667Z,0.82
2022-09-21T02:22:09.183Z,1.17
2022-09-21T02:24:23.891Z,0.65
2022-09-21T02:26:49.588Z,0.98
2022-09-21T02:29:02.002Z,0.85
2022-09-21T02:31:15.583Z,1.08
2022-09-21T02:33:25.871Z,1.00
2022-09-21T02:35:51.357Z,1.05
2022-09-21T02:38:02.615Z,2.50
2022-09-21T02:40:23.971Z,3.08
2022-09-21T02:42:31.380Z,2.10
2022-09-21T02:44:59.541Z,2.28
2022-09-21T02:47:23.004Z,2.83
2022-09-21T02:49:31.813Z,3.85
2022-09-21T02:51:40.579Z,3.97
2022-09-21T02:53:44.892Z,3.97
2022-09-21T02:55:52.041Z,3.65
2022-09-21T02:57:59.540Z,2.30
2022-09-21T03:00:02.214Z,1.60
2022-09-21T03:02:05.786Z,1.50
2022-09-21T03:04:09.940Z,1.55
2022-09-21T03:06:12.221Z,1.45
2022-09-21T03:08:18.018Z,1.65
2022-09-21T03:10:20.542Z,2.03
2022-09-21T03:12:22.920Z,2.17
2022-09-21T03:14:25.095Z,4.50
2022-09-21T03:16:27.256Z,6.28
2022-09-21T03:18:30.460Z,6.18
2022-09-21T03:20:33.869Z,5.57
2022-09-21T03:22:35.946Z,8.15
2022-09-21T03:24:46.841Z,7.45
2022-09-21T03:26:49.011Z,4.57
2022-09-21T03:28:54.935Z,3.55
2022-09-21T03:30:57.404Z,2.35
2022-09-21T03:33:02.137Z,2.00
2022-09-21T03:35:05.079Z,1.27
2022-09-21T03:37:11.286Z,1.30
2022-09-21T03:39:13.418Z,1.35
2022-09-21T03:41:15.507Z,0.93
2022-09-21T03:43:18.514Z,0.85
2022-09-21T03:45:24.974Z,0.82
2022-09-21T03:47:29.795Z,1.00
2022-09-21T03:49:32.536Z,1.08
2022-09-21T03:51:34.435Z,0.88
2022-09-21T03:53:36.476Z,1.10
2022-09-21T03:55:39.223Z,1.00
2022-09-21T03:57:41.429Z,1.00
2022-09-21T03:59:43.716Z,1.10
2022-09-21T04:01:45.872Z,1.10
2022-09-21T04:03:48.095Z,1.10
2022-09-21T04:05:50.504Z,1.20
2022-09-21T04:07:55.554Z,1.70
2022-09-21T04:09:57.762Z,5.05
2022-09-21T04:12:00.299Z,7.75
2022-09-21T04:14:02.449Z,8.98
2022-09-21T04:16:05.202Z,20.25
2022-09-21T04:18:08.516Z,17.13
2022-09-21T04:20:10.713Z,23.63
2022-09-21T04:22:14.824Z,26.38
2022-09-21T04:24:19.723Z,19.50
2022-09-21T04:26:24.794Z,17.88
2022-09-21T04:28:26.935Z,12.68
2022-09-21T04:30:32.171Z,10.43
2022-09-21T04:32:37.644Z,9.00
2022-09-21T04:34:39.994Z,7.88
2022-09-21T04:36:42.012Z,7.38
2022-09-21T04:38:44.353Z,6.47
2022-09-21T04:40:55.242Z,8.17
2022-09-21T04:42:58.136Z,8.27
2022-09-21T04:45:00.612Z,7.40
2022-09-21T04:47:02.747Z,6.78
2022-09-21T04:49:05.055Z,5.97
2022-09-21T04:51:08.836Z,5.10
2022-09-21T04:53:11.189Z,5.13
2022-09-21T04:55:13.523Z,7.32
2022-09-21T04:57:15.655Z,11.65
2022-09-21T04:59:17.686Z,11.87
2022-09-21T05:01:22.455Z,14.40
2022-09-21T05:03:25.766Z,15.30
2022-09-21T05:05:28.037Z,12.43
2022-09-21T05:07:30.478Z,11.35
2022-09-21T05:09:51.018Z,14.57
2022-09-21T05:11:53.155Z,14.57
2022-09-21T05:13:55.307Z,10.95
2022-09-21T05:15:57.375Z,18.27
2022-09-21T05:17:59.419Z,15.70
2022-09-21T05:20:01.558Z,15.88
2022-09-21T05:22:03.772Z,10.52
2022-09-21T05:24:06.080Z,6.43
2022-09-21T05:26:08.375Z,5.57
2022-09-21T05:28:11.058Z,13.45
2022-09-21T05:30:13.998Z,12.70
2022-09-21T05:32:36.128Z,11.75
2022-09-21T05:34:40.991Z,9.27
2022-09-21T05:37:03.680Z,11.88
2022-09-21T05:39:07.141Z,10.05
2022-09-21T05:41:10.270Z,9.75
2022-09-21T05:43:12.845Z,8.07
2022-09-21T05:45:17.034Z,6.00
2022-09-21T05:47:56.717Z,5.43
2022-09-21T05:50:20.640Z,5.75
2022-09-21T05:52:50.899Z,5.47
2022-09-21T05:55:07.108Z,4.47
2022-09-21T05:57:37.731Z,4.18
2022-09-21T05:59:55.903Z,3.80
2022-09-21T06:02:05.297Z,3.30
2022-09-21T06:04:11.614Z,3.20
2022-09-21T06:06:13.601Z,3.10
2022-09-21T06:08:15.668Z,2.67
2022-09-21T06:10:18.260Z,2.63
2022-09-21T06:12:20.466Z,3.25
2022-09-21T06:14:25.745Z,3.35
2022-09-21T06:16:27.823Z,3.15
2022-09-21T06:18:30.636Z,2.90
2022-09-21T06:20:33.463Z,2.67
2022-09-21T06:22:35.956Z,2.10
2022-09-21T06:24:38.078Z,2.70
2022-09-21T06:26:40.478Z,2.30
2022-09-21T06:28:42.677Z,6.50
2022-09-21T06:30:50.800Z,10.52
2022-09-21T06:32:52.899Z,9.23
2022-09-21T06:34:55.155Z,6.05
2022-09-21T06:36:59.372Z,5.38
2022-09-21T06:39:01.655Z,4.95
2022-09-21T06:41:04.840Z,29.48
2022-09-21T06:43:06.773Z,33.10
2022-09-21T06:45:09.196Z,21.60
2022-09-21T06:47:11.866Z,12.95
2022-09-21T06:49:14.054Z,13.90
2022-09-21T06:51:16.451Z,11.38
2022-09-21T06:53:18.559Z,8.77
2022-09-21T06:55:21.144Z,6.90
2022-09-21T06:57:23.957Z,5.65
2022-09-21T06:59:26.072Z,6.47
2022-09-21T07:01:28.505Z,7.00
2022-09-21T07:03:33.955Z,8.38
2022-09-21T07:05:36.203Z,9.48
2022-09-21T07:07:38.518Z,8.10
2022-09-21T07:12:03.746Z,7.90
2022-09-21T07:14:06.401Z,8.73
2022-09-21T07:16:10.380Z,7.32
2022-09-21T07:18:13.879Z,6.13
2022-09-21T07:20:16.384Z,5.15
2022-09-21T07:22:18.647Z,5.35
2022-09-21T07:24:20.965Z,4.78
2022-09-21T07:26:25.738Z,5.40
2022-09-21T07:28:27.893Z,5.20
2022-09-21T07:30:30.039Z,5.00
2022-09-21T07:32:32.601Z,5.15
2022-09-21T07:34:37.332Z,5.88
2022-09-21T07:36:39.679Z,9.27
2022-09-21T07:38:44.521Z,6.85
2022-09-21T07:40:47.004Z,5.65
2022-09-21T07:42:49.230Z,4.80
2022-09-21T07:45:03.299Z,3.90
2022-09-21T07:47:06.600Z,3.97
2022-09-21T07:49:08.904Z,4.22
2022-09-21T07:51:14.119Z,3.80
2022-09-21T07:53:17.572Z,4.30
2022-09-21T07:55:19.638Z,4.03
2022-09-21T07:57:40.846Z,3.83
2022-09-21T07:59:43.089Z,4.47
2022-09-21T08:01:45.359Z,3.92
2022-09-21T08:03:56.283Z,4.63
2022-09-21T08:05:59.910Z,3.88
2022-09-21T08:08:02.726Z,4.25
2022-09-21T08:10:08.131Z,4.10
2022-09-21T08:12:11.393Z,7.57
2022-09-21T08:14:26.146Z,6.57
2022-09-21T08:16:30.842Z,6.03
2022-09-21T08:18:37.177Z,6.13
2022-09-21T08:20:39.330Z,6.35
2022-09-21T08:22:42.736Z,7.15
2022-09-21T08:24:46.466Z,9.02
2022-09-21T08:26:59.555Z,7.53
2022-09-21T08:29:02.901Z,7.00
2022-09-21T08:31:10.515Z,5.10
2022-09-21T08:33:13.300Z,4.70
2022-09-21T08:35:19.180Z,4.15
2022-09-21T08:37:22.163Z,4.45
2022-09-21T08:39:24.741Z,4.88
2022-09-21T08:41:54.580Z,4.60
2022-09-21T08:44:17.639Z,6.10
2022-09-21T08:46:24.010Z,4.63
2022-09-21T08:48:36.807Z,5.20
2022-09-21T08:50:46.850Z,6.78
2022-09-21T08:52:54.677Z,5.28
2022-09-21T08:55:19.967Z,5.68
2022-09-21T08:57:31.562Z,5.35
2022-09-21T08:59:35.405Z,5.47
2022-09-21T09:02:06.172Z,6.18
2022-09-21T09:04:38.566Z,6.22
2022-09-21T09:07:15.585Z,5.50
2022-09-21T09:09:45.778Z,4.40
2022-09-21T09:12:21.583Z,4.43
2022-09-21T09:14:43.817Z,4.50
2022-09-21T09:17:10.714Z,4.45
2022-09-21T09:19:42.027Z,11.18
2022-09-21T09:21:45.400Z,8.52
2022-09-21T09:23:54.557Z,6.63
2022-09-21T09:26:06.585Z,5.18
2022-09-21T09:28:33.320Z,13.52
2022-09-21T09:30:36.499Z,15.32
2022-09-21T09:32:38.504Z,8.38
2022-09-21T09:34:46.172Z,5.38
2022-09-21T09:36:58.899Z,4.38
2022-09-21T09:39:13.040Z,3.78
2022-09-21T09:41:46.064Z,4.00
2022-09-21T09:44:08.245Z,4.28
2022-09-21T09:46:43.320Z,2.90
2022-09-21T09:49:19.229Z,4.07
2022-09-21T09:51:21.789Z,4.10
2022-09-21T09:53:26.572Z,3.55
2022-09-21T09:55:44.013Z,4.18
2022-09-21T09:57:47.062Z,4.95
2022-09-21T09:59:55.594Z,5.65
2022-09-21T10:02:07.297Z,4.28
2022-09-21T10:04:11.876Z,4.03
2022-09-21T10:06:31.685Z,3.58
2022-09-21T10:08:36.692Z,3.55
2022-09-21T10:10:41.697Z,3.70
2022-09-21T10:12:47.140Z,3.55
2022-09-21T10:14:55.404Z,4.90
2022-09-21T10:17:05.769Z,5.55
2022-09-21T10:19:17.363Z,7.60
2022-09-21T10:21:20.188Z,7.63
2022-09-21T10:23:23.208Z,6.70
2022-09-21T10:25:25.643Z,3.60
2022-09-21T10:27:33.769Z,3.35
2022-09-21T10:29:42.924Z,3.20
2022-09-21T10:32:03.484Z,3.22
2022-09-21T10:34:25.441Z,5.25
2022-09-21T10:36:31.841Z,3.92
2022-09-21T10:38:36.503Z,3.80
2022-09-21T10:40:40.378Z,5.40
2022-09-21T10:42:43.702Z,5.30
2022-09-21T10:44:51.194Z,4.07
2022-09-21T10:49:03.305Z,3.20
2022-09-21T10:51:05.807Z,3.40
2022-09-21T10:53:11.091Z,3.70
2022-09-21T10:55:23.417Z,4.70
2022-09-21T10:57:28.245Z,8.30
2022-09-21T10:59:36.533Z,15.48
2022-09-21T11:01:46.128Z,16.67
2022-09-21T11:04:05.536Z,19.77
2022-09-21T11:06:35.500Z,22.25
2022-09-21T11:08:45.889Z,27.05
2022-09-21T11:11:41.290Z,27.92
2022-09-21T11:13:50.164Z,29.08
2022-09-21T11:16:05.127Z,21.35
2022-09-21T11:18:14.886Z,21.58
2022-09-21T11:20:33.937Z,16.00
2022-09-21T11:22:46.138Z,15.60
2022-09-21T11:25:00.912Z,17.88
2022-09-21T11:27:08.487Z,19.08
2022-09-21T11:29:18.053Z,21.95
2022-09-21T11:31:48.204Z,28.98
2022-09-21T11:34:36.403Z,42.42
2022-09-21T11:37:15.055Z,31.30
2022-09-21T11:39:36.840Z,24.48
2022-09-21T11:42:19.122Z,11.73
2022-09-21T11:45:00.592Z,14.15
2022-09-21T11:47:12.052Z,20.63
2022-09-21T11:49:19.784Z,19.83
2022-09-21T11:51:40.057Z,27.63
2022-09-21T11:54:15.528Z,36.92
2022-09-21T11:56:26.080Z,35.75
2022-09-21T11:58:40.175Z,33.38
2022-09-21T12:01:12.472Z,33.22
2022-09-21T12:03:53.163Z,30.60
2022-09-21T12:06:10.448Z,16.65
2022-09-21T12:08:26.303Z,11.38
2022-09-21T12:11:14.497Z,7.60
2022-09-21T12:13:29.047Z,6.93
2022-09-21T12:15:50.388Z,6.25
2022-09-21T12:18:04.155Z,5.60
2022-09-21T12:20:25.485Z,6.88
2022-09-21T12:22:39.251Z,7.70
2022-09-21T12:24:52.188Z,10.90
2022-09-21T12:26:59.752Z,9.13
2022-09-21T12:29:14.351Z,8.52
2022-09-21T12:31:24.081Z,6.88
2022-09-21T12:33:56.606Z,7.05
2022-09-21T12:36:18.282Z,5.47
2022-09-21T12:38:28.076Z,6.50
2022-09-21T12:40:51.879Z,5.68
2022-09-21T12:43:36.262Z,5.28
2022-09-21T12:46:00.486Z,4.80
2022-09-21T12:48:13.235Z,3.63
2022-09-21T12:50:44.598Z,2.92
2022-09-21T12:52:47.367Z,2.70
2022-09-21T12:54:58.711Z,2.17
2022-09-21T12:57:29.802Z,2.47
2022-09-21T12:59:58.384Z,2.22
2022-09-21T13:02:17.944Z,2.28
2022-09-21T13:04:35.851Z,2.65
2022-09-21T13:06:59.367Z,3.80
2022-09-21T13:09:10.059Z,10.55
2022-09-21T13:11:14.497Z,20.17
2022-09-21T13:13:29.852Z,24.67
2022-09-21T13:15:49.340Z,18.80
2022-09-21T13:18:03.070Z,7.45
2022-09-21T13:20:18.251Z,4.90
2022-09-21T13:22:20.579Z,9.77
2022-09-21T13:24:30.546Z,7.95
2022-09-21T13:26:51.768Z,6.60
2022-09-21T13:28:54.381Z,4.03
2022-09-21T13:31:40.428Z,3.40
2022-09-21T13:33:41.260Z,2.83
2022-09-21T13:36:04.284Z,2.65
2022-09-21T13:38:30.544Z,2.50
2022-09-21T13:40:35.609Z,2.22
2022-09-21T13:42:38.520Z,4.45
2022-09-21T13:44:44.297Z,4.88
2022-09-21T13:46:52.879Z,5.50
2022-09-21T13:48:59.619Z,5.00
2022-09-21T13:51:08.360Z,5.68
2022-09-21T13:53:22.671Z,5.60
2022-09-21T13:55:31.022Z,5.57
2022-09-21T13:57:48.611Z,3.85
2022-09-21T14:00:22.337Z,4.38
2022-09-21T14:02:36.010Z,3.67
2022-09-21T14:04:39.606Z,3.38
2022-09-21T14:06:49.823Z,3.47
2022-09-21T14:09:00.505Z,2.90
2022-09-21T14:11:20.900Z,3.00
2022-09-21T14:13:34.636Z,2.10
2022-09-21T14:15:39.988Z,1.55
2022-09-21T14:17:43.485Z,1.15
2022-09-21T14:19:45.652Z,0.80
2022-09-21T14:22:09.795Z,1.02
2022-09-21T14:24:38.861Z,0.95
2022-09-21T14:26:44.617Z,0.80
2022-09-21T14:28:52.410Z,1.13
2022-09-21T14:30:58.577Z,0.60
2022-09-21T14:33:00.898Z,2.00
2022-09-21T14:35:12.498Z,1.80
2022-09-21T14:37:39.631Z,4.40
2022-09-21T14:39:46.044Z,6.90
2022-09-21T14:41:53.432Z,8.25
2022-09-21T14:43:58.265Z,8.70
2022-09-21T14:46:25.806Z,16.85
2022-09-21T14:48:58.834Z,25.48
2022-09-21T14:51:31.649Z,25.88
2022-09-21T14:54:05.136Z,20.50
2022-09-21T14:56:33.746Z,18.00
2022-09-21T14:59:15.688Z,19.35
2022-09-21T15:01:21.052Z,21.50
2022-09-21T15:03:30.297Z,23.63
2022-09-21T15:05:40.852Z,23.98
2022-09-21T15:08:06.249Z,28.23
2022-09-21T15:10:58.912Z,17.20
2022-09-21T15:13:11.861Z,11.63
2022-09-21T15:15:40.862Z,11.85
2022-09-21T15:17:59.708Z,12.48
2022-09-21T15:20:17.011Z,17.70
2022-09-21T15:22:21.794Z,17.50
2022-09-21T15:24:30.029Z,28.25
2022-09-21T15:26:35.411Z,26.08
2022-09-21T15:29:08.514Z,18.98
2022-09-21T15:31:12.210Z,13.23
2022-09-21T15:33:15.167Z,9.85
2022-09-21T15:35:26.912Z,5.95
2022-09-21T15:37:29.842Z,5.05
2022-09-21T15:39:32.848Z,3.25
2022-09-21T15:41:45.316Z,3.90
2022-09-21T15:44:06.300Z,3.20
2022-09-21T15:46:12.377Z,3.33
2022-09-21T15:48:14.749Z,4.22
2022-09-21T15:50:20.319Z,4.53
2022-09-21T15:52:25.711Z,5.13
2022-09-21T15:54:42.733Z,5.95
2022-09-21T15:56:45.328Z,4.97
2022-09-21T15:58:50.238Z,5.18
2022-09-21T16:00:55.790Z,5.25
2022-09-21T16:03:06.911Z,8.25
2022-09-21T16:05:15.142Z,7.95
2022-09-21T16:07:33.897Z,8.07
2022-09-21T16:09:46.851Z,8.80
2022-09-21T16:11:49.131Z,8.80
2022-09-21T16:14:25.638Z,8.63
2022-09-21T16:16:28.164Z,11.85
2022-09-21T16:18:35.491Z,13.85
2022-09-21T16:20:45.449Z,23.20
2022-09-21T16:22:50.039Z,23.33
2022-09-21T16:24:55.527Z,35.90
2022-09-21T16:27:03.656Z,39.60
2022-09-21T16:29:12.298Z,38.42
2022-09-21T16:31:36.339Z,35.40
2022-09-21T16:34:06.744Z,30.25
2022-09-21T16:36:18.887Z,31.65
2022-09-21T16:38:23.645Z,28.55
2022-09-21T16:40:29.820Z,28.40
2022-09-21T16:42:35.683Z,29.15
2022-09-21T16:44:44.587Z,24.70
2022-09-21T16:46:53.941Z,21.98
2022-09-21T16:48:56.498Z,27.15
2022-09-21T16:51:04.372Z,30.48
2022-09-21T16:53:06.620Z,50.08
2022-09-21T16:55:08.902Z,79.10
2022-09-21T16:57:11.649Z,86.82
2022-09-21T16:59:23.351Z,95.97
2022-09-21T17:01:26.924Z,78.70
2022-09-21T17:03:31.770Z,83.65
2022-09-21T17:05:36.721Z,68.45
2022-09-21T17:07:39.154Z,53.13
2022-09-21T17:09:44.643Z,41.40
2022-09-21T17:11:47.161Z,38.97
2022-09-21T17:13:50.956Z,34.92
2022-09-21T17:15:53.903Z,28.60
2022-09-21T17:17:59.196Z,28.45
2022-09-21T17:20:07.412Z,28.77
2022-09-21T17:22:17.370Z,26.27
2022-09-21T17:24:45.839Z,23.60
2022-09-21T17:26:45.482Z,24.33
2022-09-21T17:28:48.237Z,24.50
2022-09-21T17:30:50.759Z,23.80
2022-09-21T17:32:53.478Z,22.48
2022-09-21T17:35:01.836Z,21.25
2022-09-21T17:37:04.562Z,21.25
2022-09-21T17:39:07.333Z,20.30
2022-09-21T17:41:38.947Z,18.92
2022-09-21T17:43:50.735Z,18.10
2022-09-21T17:46:04.530Z,20.75
2022-09-21T17:48:22.127Z,27.02
2022-09-21T17:50:27.454Z,31.48
2022-09-21T17:52:48.364Z,32.28
2022-09-21T17:54:53.125Z,29.95
2022-09-21T17:57:14.174Z,30.83
2022-09-21T17:59:34.127Z,26.83
2022-09-21T18:01:48.069Z,24.10
2022-09-21T18:03:50.645Z,22.45
2022-09-21T18:05:59.619Z,23.02
2022-09-21T18:08:02.934Z,21.60
2022-09-21T18:10:16.127Z,22.23
2022-09-21T18:12:27.086Z,22.73
2022-09-21T18:14:35.218Z,23.25
2022-09-21T18:17:14.904Z,20.70
2022-09-21T18:19:49.610Z,18.95
2022-09-21T18:22:02.738Z,18.50
2022-09-21T18:24:15.344Z,15.88
2022-09-21T18:26:26.565Z,15.25
2022-09-21T18:28:46.873Z,12.65
2022-09-21T18:31:11.083Z,12.55
2022-09-21T18:33:41.579Z,13.57
2022-09-21T18:35:53.789Z,17.05
2022-09-21T18:38:16.188Z,19.38
2022-09-21T18:40:25.754Z,19.55
2022-09-21T18:43:00.415Z,17.95
2022-09-21T18:45:06.872Z,15.80
2022-09-21T18:47:35.431Z,15.00
2022-09-21T18:49:55.843Z,19.58
2022-09-21T18:52:16.309Z,23.15
2022-09-21T18:54:21.682Z,25.10
2022-09-21T18:56:31.788Z,24.30
2022-09-21T18:58:35.071Z,22.30
2022-09-21T19:00:39.584Z,19.90
2022-09-21T19:02:59.020Z,20.45
2022-09-21T19:05:07.784Z,16.10
2022-09-21T19:07:40.627Z,15.38
2022-09-21T19:10:11.766Z,14.13
2022-09-21T19:12:32.715Z,13.80
2022-09-21T19:15:10.150Z,11.80
2022-09-21T19:17:52.835Z,11.93
2022-09-21T19:20:24.172Z,14.07
2022-09-21T19:22:55.937Z,15.95
2022-09-21T19:25:16.756Z,15.40
2022-09-21T19:27:25.960Z,14.23
2022-09-21T19:29:35.567Z,11.65
2022-09-21T19:31:37.903Z,10.70
2022-09-21T19:33:55.400Z,10.25
2022-09-21T19:36:00.761Z,9.18
2022-09-21T19:38:04.324Z,7.70
2022-09-21T19:40:08.754Z,7.57
2022-09-21T19:42:52.622Z,8.55
2022-09-21T19:45:14.779Z,14.32
2022-09-21T19:47:32.879Z,12.82
2022-09-21T19:49:57.053Z,17.05
2022-09-21T19:52:04.681Z,16.15
2022-09-21T19:54:39.662Z,14.27
2022-09-21T19:57:07.180Z,13.77
2022-09-21T19:59:44.437Z,14.10
2022-09-21T20:02:05.956Z,13.95
2022-09-21T20:04:13.837Z,13.35
2022-09-21T20:06:44.426Z,14.65
2022-09-21T20:09:20.104Z,13.38
2022-09-21T20:11:37.433Z,12.63
2022-09-21T20:13:42.761Z,12.38
2022-09-21T20:16:21.830Z,11.70
2022-09-21T20:18:42.496Z,11.90
2022-09-21T20:20:44.872Z,10.88
2022-09-21T20:22:47.680Z,10.50
2022-09-21T20:25:19.312Z,12.10
2022-09-21T20:27:42.449Z,10.75
2022-09-21T20:29:46.777Z,10.15
2022-09-21T20:31:52.239Z,10.88
2022-09-21T20:34:34.881Z,10.80
2022-09-21T20:36:37.851Z,9.63
2022-09-21T20:38:42.740Z,9.07
2022-09-21T20:40:45.799Z,9.40
2022-09-21T20:42:48.309Z,8.98
2022-09-21T20:44:56.371Z,9.27
2022-09-21T20:46:58.778Z,8.82
2022-09-21T20:49:05.058Z,8.55
2022-09-21T20:51:07.743Z,9.25
2022-09-21T20:53:10.602Z,7.90
2022-09-21T20:55:17.796Z,8.07
2022-09-21T20:57:23.649Z,7.82
2022-09-21T20:59:27.801Z,7.35
2022-09-21T21:02:08.151Z,7.63
2022-09-21T21:04:10.749Z,6.65
2022-09-21T21:06:17.862Z,6.78
2022-09-21T21:08:20.437Z,7.13
2022-09-21T21:10:23.178Z,6.60
2022-09-21T21:12:26.221Z,6.22
2022-09-21T21:14:31.569Z,6.45
2022-09-21T21:16:34.331Z,6.03
2022-09-21T21:18:39.984Z,6.22
2022-09-21T21:20:42.544Z,6.45
2022-09-21T21:22:54.742Z,6.60
2022-09-21T21:24:57.363Z,6.80
2022-09-21T21:27:03.443Z,8.52
2022-09-21T21:29:06.173Z,10.30
2022-09-21T21:31:08.708Z,18.52
2022-09-21T21:33:14.522Z,18.15
2022-09-21T21:35:16.700Z,21.10
2022-09-21T21:37:21.208Z,24.35
2022-09-21T21:39:23.543Z,31.30
2022-09-21T21:41:26.168Z,35.80
2022-09-21T21:43:33.496Z,57.25
2022-09-21T21:45:36.011Z,152.00
2022-09-21T21:47:41.115Z,179.73
2022-09-21T21:49:45.931Z,162.82
2022-09-21T21:51:49.696Z,125.55
2022-09-21T21:53:52.071Z,102.85
2022-09-21T21:56:12.903Z,88.55
2022-09-21T21:58:15.529Z,79.63
2022-09-21T22:00:18.201Z,74.82
2022-09-21T22:02:21.070Z,56.85
2022-09-21T22:04:27.668Z,53.33
2022-09-21T22:06:32.340Z,43.47
2022-09-21T22:08:35.613Z,41.10
2022-09-21T22:10:38.098Z,39.03
2022-09-21T22:12:40.137Z,37.13
2022-09-21T22:14:42.379Z,29.73
2022-09-21T22:16:44.374Z,24.40
2022-09-21T22:18:47.105Z,21.50
2022-09-21T22:20:52.157Z,20.75
2022-09-21T22:22:54.637Z,18.70
2022-09-21T22:24:59.477Z,17.67
2022-09-21T22:27:01.553Z,19.15
2022-09-21T22:29:06.346Z,17.95
2022-09-21T22:31:12.307Z,17.80
2022-09-21T22:33:14.742Z,16.90
2022-09-21T22:35:17.221Z,16.75
2022-09-21T22:37:19.643Z,26.40
2022-09-21T22:39:21.929Z,29.70
2022-09-21T22:41:30.045Z,39.42
2022-09-21T22:43:32.515Z,53.75
2022-09-21T22:45:34.701Z,50.60
2022-09-21T22:47:37.065Z,44.47
2022-09-21T22:49:39.328Z,35.17
2022-09-21T22:51:41.747Z,26.92
2022-09-21T22:53:44.302Z,14.60
2022-09-21T22:55:46.586Z,16.60
2022-09-21T22:57:49.801Z,22.42
2022-09-21T22:59:52.275Z,31.25
2022-09-21T23:01:54.904Z,28.45
2022-09-21T23:03:59.488Z,49.40
2022-09-21T23:06:01.927Z,59.88
2022-09-21T23:08:05.443Z,64.50
2022-09-21T23:10:08.795Z,69.40
2022-09-21T23:12:10.873Z,64.85
2022-09-21T23:14:14.000Z,59.03
2022-09-21T23:16:17.426Z,57.92
2022-09-21T23:18:19.701Z,51.28
2022-09-21T23:20:21.954Z,43.80
2022-09-21T23:22:26.880Z,39.17
2022-09-21T23:24:30.071Z,35.60
2022-09-21T23:26:34.149Z,32.08
2022-09-21T23:28:37.678Z,37.65
2022-09-21T23:30:39.732Z,37.72
2022-09-21T23:32:42.232Z,38.08
2022-09-21T23:34:44.773Z,36.38
2022-09-21T23:36:46.963Z,34.28
2022-09-21T23:38:50.215Z,32.72
2022-09-21T23:40:55.818Z,27.85
2022-09-21T23:42:59.479Z,29.13
2022-09-21T23:45:01.703Z,27.20
2022-09-21T23:47:03.999Z,23.45
2022-09-21T23:49:07.123Z,24.00
2022-09-21T23:51:10.093Z,23.60
2022-09-21T23:53:13.180Z,20.70
2022-09-21T23:55:15.597Z,19.80
2022-09-21T23:57:17.750Z,19.63
2022-09-21T23:59:20.097Z,19.48
